Time;durP1;ratioP1;P1;durP2;ratioP2;P2;SDS_P1;SDS_P2;PMS_P1;PMS_P2;Temp;Humidity;BMP_temperature;BMP_pressure;BME280_temperature;BME280_humidity;BME280_pressure;Samples;Min_cycle;Max_cycle;Signal;HPM_P1;HPM_P2
2022/07/17 00:01:36;;;;;;;7.22;2.05;;;;;;;;;;5131523;27;20116;-66
2022/07/17 00:04:03;;;;;;;6.43;1.90;;;;;;;;;;5129541;27;20039;-66
2022/07/17 00:06:29;;;;;;;5.20;2.00;;;;;;;;;;5132985;27;20059;-66
2022/07/17 00:08:55;;;;;;;7.18;2.15;;;;;;;;;;5135403;27;20051;-66
2022/07/17 00:11:21;;;;;;;5.18;1.73;;;;;;;;;;5135912;27;20537;-66
2022/07/17 00:13:47;;;;;;;3.42;1.70;;;;;;;;;;5136002;27;20092;-67
2022/07/17 00:16:13;;;;;;;4.85;1.75;;;;;;;;;;5135132;27;20145;-67
2022/07/17 00:18:39;;;;;;;5.57;1.90;;;;;;;;;;5135562;27;20454;-67
2022/07/17 00:21:05;;;;;;;3.80;1.60;;;;;;;;;;5135726;27;20063;-67
2022/07/17 00:23:31;;;;;;;7.90;2.15;;;;;;;;;;5134782;27;20031;-67
2022/07/17 00:25:57;;;;;;;4.97;1.88;;;;;;;;;;5127420;27;20151;-67
2022/07/17 00:28:23;;;;;;;5.50;1.80;;;;;;;;;;5114844;28;20472;-67
2022/07/17 00:30:49;;;;;;;6.00;2.10;;;;;;;;;;5113937;28;20039;-67
2022/07/17 00:33:15;;;;;;;4.97;2.53;;;;;;;;;;5114145;28;20047;-67
2022/07/17 00:35:42;;;;;;;3.92;1.55;;;;;;;;;;5114667;28;20044;-67
2022/07/17 00:38:10;;;;;;;4.45;1.95;;;;;;;;;;5113792;28;20043;-67
2022/07/17 00:40:36;;;;;;;8.40;2.30;;;;;;;;;;5114886;28;20482;-67
2022/07/17 00:43:02;;;;;;;3.95;1.85;;;;;;;;;;5114195;28;20070;-67
2022/07/17 00:45:28;;;;;;;7.85;1.80;;;;;;;;;;5113914;28;20130;-67
2022/07/17 00:47:57;;;;;;;5.68;1.80;;;;;;;;;;5114741;28;20431;-67
2022/07/17 00:50:24;;;;;;;3.72;2.10;;;;;;;;;;5114824;28;20040;-67
2022/07/17 00:52:50;;;;;;;2.88;1.70;;;;;;;;;;5112378;28;20088;-67
2022/07/17 00:55:17;;;;;;;4.35;1.60;;;;;;;;;;5114057;28;20040;-67
2022/07/17 00:57:45;;;;;;;4.97;1.95;;;;;;;;;;5114179;28;20673;-67
2022/07/17 01:00:12;;;;;;;5.07;2.20;;;;;;;;;;5113616;28;20027;-67
2022/07/17 01:02:38;;;;;;;5.78;2.00;;;;;;;;;;5112969;28;20035;-67
2022/07/17 01:05:05;;;;;;;4.65;2.10;;;;;;;;;;5113962;27;20059;-67
2022/07/17 01:07:31;;;;;;;6.57;3.20;;;;;;;;;;5113599;28;20032;-67
2022/07/17 01:09:58;;;;;;;4.47;2.00;;;;;;;;;;5113951;28;20452;-67
2022/07/17 01:12:25;;;;;;;5.80;2.15;;;;;;;;;;5113681;28;20043;-67
2022/07/17 01:14:52;;;;;;;5.78;1.90;;;;;;;;;;5113186;27;20118;-67
2022/07/17 01:17:18;;;;;;;5.38;2.10;;;;;;;;;;5113407;28;20502;-67
2022/07/17 01:19:44;;;;;;;5.57;2.15;;;;;;;;;;5113886;28;20032;-67
2022/07/17 01:22:10;;;;;;;4.53;2.20;;;;;;;;;;5112077;28;20035;-67
2022/07/17 01:24:39;;;;;;;4.82;2.13;;;;;;;;;;5113657;27;20048;-67
2022/07/17 01:27:05;;;;;;;3.17;2.10;;;;;;;;;;5131054;27;20092;-67
2022/07/17 01:29:31;;;;;;;3.88;2.20;;;;;;;;;;5133965;27;20473;-67
2022/07/17 01:31:57;;;;;;;2.92;2.20;;;;;;;;;;5134342;27;20492;-67
2022/07/17 01:34:23;;;;;;;4.20;2.28;;;;;;;;;;5134081;27;20130;-67
2022/07/17 01:36:49;;;;;;;4.00;1.95;;;;;;;;;;5133630;27;20039;-67
2022/07/17 01:39:16;;;;;;;4.88;2.20;;;;;;;;;;5134387;27;20150;-67
2022/07/17 01:41:42;;;;;;;5.25;2.00;;;;;;;;;;5134275;27;20792;-67
2022/07/17 01:44:08;;;;;;;5.50;2.30;;;;;;;;;;5133128;27;20046;-67
2022/07/17 01:46:34;;;;;;;5.40;2.30;;;;;;;;;;5134081;27;20046;-67
2022/07/17 01:49:00;;;;;;;4.40;2.20;;;;;;;;;;5134163;27;20039;-67
2022/07/17 01:51:27;;;;;;;6.00;2.42;;;;;;;;;;5133256;27;20046;-67
2022/07/17 01:53:53;;;;;;;6.30;2.20;;;;;;;;;;5134073;27;20535;-67
2022/07/17 01:56:19;;;;;;;5.15;2.13;;;;;;;;;;5133975;27;20035;-67
2022/07/17 01:58:45;;;;;;;4.65;2.47;;;;;;;;;;5133166;27;20031;-67
2022/07/17 02:01:11;;;;;;;3.83;2.47;;;;;;;;;;5133703;27;20390;-67
2022/07/17 02:03:37;;;;;;;9.18;2.92;;;;;;;;;;5133543;27;20118;-67
2022/07/17 02:06:03;;;;;;;4.60;2.65;;;;;;;;;;5132562;27;20638;-67
2022/07/17 02:08:29;;;;;;;6.20;2.40;;;;;;;;;;5133847;27;20069;-67
2022/07/17 02:10:55;;;;;;;4.60;2.30;;;;;;;;;;5133618;27;20047;-67
2022/07/17 02:13:21;;;;;;;4.22;2.50;;;;;;;;;;5132976;27;20050;-67
2022/07/17 02:15:47;;;;;;;6.47;2.30;;;;;;;;;;5133330;27;20400;-67
2022/07/17 02:18:13;;;;;;;7.20;2.60;;;;;;;;;;5133261;27;20047;-67
2022/07/17 02:20:41;;;;;;;6.45;2.70;;;;;;;;;;5132571;27;20039;-67
2022/07/17 02:23:07;;;;;;;3.30;2.38;;;;;;;;;;5133492;27;20042;-67
2022/07/17 02:25:33;;;;;;;5.95;2.92;;;;;;;;;;5128883;27;20039;-67
2022/07/17 02:27:59;;;;;;;5.03;2.05;;;;;;;;;;5112229;28;20051;-67
2022/07/17 02:30:25;;;;;;;4.20;2.42;;;;;;;;;;5112082;28;20043;-67
2022/07/17 02:32:51;;;;;;;3.70;2.17;;;;;;;;;;5112439;28;20036;-67
2022/07/17 02:35:17;;;;;;;5.45;2.17;;;;;;;;;;5111707;28;20046;-67
2022/07/17 02:37:45;;;;;;;4.15;1.95;;;;;;;;;;5112274;28;20054;-67
2022/07/17 02:40:12;;;;;;;4.50;2.00;;;;;;;;;;5112565;28;20032;-67
2022/07/17 02:42:38;;;;;;;4.03;2.10;;;;;;;;;;5111676;28;20035;-67
2022/07/17 02:45:06;;;;;;;6.43;2.30;;;;;;;;;;5111078;28;20047;-67
2022/07/17 02:47:33;;;;;;;6.43;2.75;;;;;;;;;;5112353;28;20081;-67
2022/07/17 02:50:01;;;;;;;4.72;2.80;;;;;;;;;;5111684;28;20478;-67
2022/07/17 02:52:27;;;;;;;6.72;2.45;;;;;;;;;;5112186;28;20114;-67
2022/07/17 02:54:53;;;;;;;4.63;2.60;;;;;;;;;;5112219;28;20489;-67
2022/07/17 02:57:19;;;;;;;4.15;2.38;;;;;;;;;;5110379;28;20165;-67
2022/07/17 02:59:45;;;;;;;4.05;2.60;;;;;;;;;;5112350;28;20036;-67
2022/07/17 03:02:11;;;;;;;3.97;2.33;;;;;;;;;;5112069;28;20047;-67
2022/07/17 03:04:38;;;;;;;3.53;2.33;;;;;;;;;;5111327;28;20484;-67
2022/07/17 03:07:04;;;;;;;2.95;1.80;;;;;;;;;;5111996;28;20055;-67
2022/07/17 03:09:30;;;;;;;3.40;2.20;;;;;;;;;;5111985;28;20036;-67
2022/07/17 03:11:56;;;;;;;2.75;2.10;;;;;;;;;;5111363;28;20047;-67
2022/07/17 03:14:22;;;;;;;4.30;2.20;;;;;;;;;;5112065;28;20088;-67
2022/07/17 03:16:48;;;;;;;6.07;2.42;;;;;;;;;;5112001;28;20085;-67
2022/07/17 03:19:14;;;;;;;3.28;2.28;;;;;;;;;;5111401;28;20050;-67
2022/07/17 03:21:40;;;;;;;6.93;1.95;;;;;;;;;;5111861;28;20036;-67
2022/07/17 03:24:07;;;;;;;5.18;2.28;;;;;;;;;;5111945;28;20044;-67
2022/07/17 03:26:33;;;;;;;3.67;2.17;;;;;;;;;;5124213;28;20063;-67
2022/07/17 03:28:59;;;;;;;2.75;2.28;;;;;;;;;;5132208;27;20082;-67
2022/07/17 03:31:25;;;;;;;4.03;2.13;;;;;;;;;;5132442;27;20472;-67
2022/07/17 03:33:51;;;;;;;2.95;2.40;;;;;;;;;;5132555;27;20358;-67
2022/07/17 03:36:17;;;;;;;2.58;2.17;;;;;;;;;;5130524;28;20095;-67
2022/07/17 03:38:43;;;;;;;4.53;2.40;;;;;;;;;;5132114;27;20081;-67
2022/07/17 03:41:10;;;;;;;6.15;2.53;;;;;;;;;;5134818;27;20066;-67
2022/07/17 03:43:36;;;;;;;4.00;2.30;;;;;;;;;;5135823;27;20039;-67
2022/07/17 03:46:02;;;;;;;3.83;2.47;;;;;;;;;;5136507;27;20043;-67
2022/07/17 03:48:29;;;;;;;2.70;2.10;;;;;;;;;;5136505;27;20079;-67
2022/07/17 03:50:55;;;;;;;4.13;2.17;;;;;;;;;;5135779;27;20043;-67
2022/07/17 03:53:21;;;;;;;5.25;2.22;;;;;;;;;;5136023;27;20035;-66
2022/07/17 03:55:47;;;;;;;3.63;2.13;;;;;;;;;;5136298;27;20040;-66
2022/07/17 03:58:13;;;;;;;5.85;2.40;;;;;;;;;;5135686;27;20036;-66
2022/07/17 04:00:39;;;;;;;4.65;2.25;;;;;;;;;;5136045;27;20083;-66
2022/07/17 04:03:05;;;;;;;4.05;2.38;;;;;;;;;;5136081;27;20035;-66
2022/07/17 04:05:31;;;;;;;2.90;2.13;;;;;;;;;;5134962;27;20054;-66
2022/07/17 04:07:58;;;;;;;3.70;2.25;;;;;;;;;;5136154;27;20039;-66
2022/07/17 04:10:24;;;;;;;3.67;2.25;;;;;;;;;;5135780;27;20047;-66
2022/07/17 04:12:50;;;;;;;6.70;2.50;;;;;;;;;;5135136;27;20045;-66
2022/07/17 04:15:48;;;;;;;4.70;2.50;;;;;;;;;;5135784;27;20050;-66
2022/07/17 04:18:02;;;;;;;5.28;2.47;;;;;;;;;;5135571;27;20042;-66
2022/07/17 04:20:28;;;;;;;3.85;2.47;;;;;;;;;;5134946;27;20035;-66
2022/07/17 04:22:54;;;;;;;3.40;2.50;;;;;;;;;;5135766;27;20037;-66
2022/07/17 04:25:20;;;;;;;6.15;2.65;;;;;;;;;;5132989;27;20505;-66
2022/07/17 04:27:46;;;;;;;8.15;2.85;;;;;;;;;;5114093;28;20039;-66
2022/07/17 04:30:13;;;;;;;6.30;2.90;;;;;;;;;;5115072;28;20050;-66
2022/07/17 04:32:39;;;;;;;5.53;3.05;;;;;;;;;;5114894;27;20047;-66
2022/07/17 04:35:05;;;;;;;4.35;2.85;;;;;;;;;;5114167;28;20088;-66
2022/07/17 04:37:31;;;;;;;4.43;2.53;;;;;;;;;;5113682;28;20454;-66
2022/07/17 04:39:57;;;;;;;5.07;2.55;;;;;;;;;;5114772;28;20047;-66
2022/07/17 04:42:23;;;;;;;5.18;2.00;;;;;;;;;;5113975;28;20067;-66
2022/07/17 04:44:49;;;;;;;4.15;1.88;;;;;;;;;;5114759;28;20378;-66
2022/07/17 04:47:15;;;;;;;3.28;2.00;;;;;;;;;;5114406;28;20047;-66
2022/07/17 04:49:41;;;;;;;4.07;2.30;;;;;;;;;;5114129;28;20050;-66
2022/07/17 04:52:07;;;;;;;4.57;2.33;;;;;;;;;;5113611;28;20082;-66
2022/07/17 04:54:33;;;;;;;5.68;2.67;;;;;;;;;;5114164;28;20055;-66
2022/07/17 04:56:59;;;;;;;4.85;2.55;;;;;;;;;;5113831;28;20058;-66
2022/07/17 04:59:25;;;;;;;3.15;2.15;;;;;;;;;;5114375;28;20039;-66
2022/07/17 05:01:52;;;;;;;5.85;2.58;;;;;;;;;;5114317;28;20123;-66
2022/07/17 05:04:18;;;;;;;5.80;2.30;;;;;;;;;;5113685;28;20046;-66
2022/07/17 05:06:44;;;;;;;5.68;2.67;;;;;;;;;;5114288;28;20177;-66
2022/07/17 05:09:11;;;;;;;8.93;2.15;;;;;;;;;;5114528;28;20044;-66
2022/07/17 05:11:36;;;;;;;4.60;2.30;;;;;;;;;;5113467;28;20047;-66
2022/07/17 05:14:03;;;;;;;6.22;2.38;;;;;;;;;;5114281;28;20410;-66
2022/07/17 05:16:29;;;;;;;5.80;1.88;;;;;;;;;;5113727;28;20038;-66
2022/07/17 05:18:55;;;;;;;4.13;2.30;;;;;;;;;;5113445;28;20078;-66
2022/07/17 05:21:21;;;;;;;3.28;2.40;;;;;;;;;;5113915;28;20039;-66
2022/07/17 05:23:47;;;;;;;4.80;2.15;;;;;;;;;;5114163;28;20031;-66
2022/07/17 05:26:13;;;;;;;5.63;2.42;;;;;;;;;;5123021;27;20039;-66
2022/07/17 05:28:39;;;;;;;5.38;2.22;;;;;;;;;;5134545;27;20096;-66
2022/07/17 05:31:05;;;;;;;3.13;2.08;;;;;;;;;;5134494;27;20525;-66
2022/07/17 05:33:31;;;;;;;5.10;2.55;;;;;;;;;;5132647;27;20042;-66
2022/07/17 05:35:57;;;;;;;6.10;2.33;;;;;;;;;;5134432;27;20474;-66
2022/07/17 05:38:23;;;;;;;5.50;2.53;;;;;;;;;;5134065;27;20118;-66
2022/07/17 05:40:49;;;;;;;3.53;2.35;;;;;;;;;;5133256;27;20046;-66
2022/07/17 05:43:15;;;;;;;7.78;3.05;;;;;;;;;;5134049;27;20035;-66
2022/07/17 05:45:41;;;;;;;7.95;2.33;;;;;;;;;;5134212;27;20071;-66
2022/07/17 05:48:08;;;;;;;3.75;1.92;;;;;;;;;;5133634;27;20078;-66
2022/07/17 05:50:34;;;;;;;7.47;2.30;;;;;;;;;;5134256;27;20047;-66
2022/07/17 05:53:01;;;;;;;9.85;2.10;;;;;;;;;;5134120;27;20497;-66
2022/07/17 05:55:27;;;;;;;4.65;2.08;;;;;;;;;;5133424;27;20473;-66
2022/07/17 05:57:53;;;;;;;7.13;2.10;;;;;;;;;;5134100;27;20689;-66
2022/07/17 06:00:20;;;;;;;3.92;1.83;;;;;;;;;;5134002;27;20031;-66
2022/07/17 06:02:46;;;;;;;9.23;2.05;;;;;;;;;;5132915;27;20046;-66
2022/07/17 06:05:12;;;;;;;5.28;2.17;;;;;;;;;;5133544;27;20057;-66
2022/07/17 06:07:38;;;;;;;7.57;2.17;;;;;;;;;;5133689;27;20087;-66
2022/07/17 06:10:05;;;;;;;7.00;2.17;;;;;;;;;;5133151;27;20046;-66
2022/07/17 06:12:31;;;;;;;8.70;2.35;;;;;;;;;;5133702;27;20042;-66
2022/07/17 06:14:57;;;;;;;7.28;1.80;;;;;;;;;;5133634;27;20384;-66
2022/07/17 06:17:23;;;;;;;4.53;1.90;;;;;;;;;;5132831;27;20443;-66
2022/07/17 06:19:52;;;;;;;5.47;1.65;;;;;;;;;;5133490;27;20404;-66
2022/07/17 06:22:19;;;;;;;4.55;1.48;;;;;;;;;;5133182;27;20385;-66
2022/07/17 06:24:45;;;;;;;7.93;1.98;;;;;;;;;;5132110;27;20114;-66
2022/07/17 06:27:11;;;;;;;3.42;1.27;;;;;;;;;;5113193;27;20306;-66
2022/07/17 06:29:37;;;;;;;4.68;1.63;;;;;;;;;;5111451;28;20046;-66
2022/07/17 06:32:04;;;;;;;7.43;1.40;;;;;;;;;;5110602;28;20043;-66
2022/07/17 06:34:30;;;;;;;6.47;1.20;;;;;;;;;;5111317;28;20080;-66
2022/07/17 06:36:56;;;;;;;4.88;1.10;;;;;;;;;;5111228;28;20330;-66
2022/07/17 06:39:22;;;;;;;4.85;1.30;;;;;;;;;;5110678;28;20039;-66
2022/07/17 06:41:48;;;;;;;4.13;1.40;;;;;;;;;;5111403;28;20406;-66
2022/07/17 06:44:14;;;;;;;4.32;1.30;;;;;;;;;;5111282;28;20039;-66
2022/07/17 06:46:40;;;;;;;9.40;1.23;;;;;;;;;;5110461;28;20043;-66
2022/07/17 06:49:05;;;;;;;6.00;1.05;;;;;;;;;;5111189;28;20160;-66
2022/07/17 06:51:31;;;;;;;6.07;1.60;;;;;;;;;;5111261;28;20495;-66
2022/07/17 06:53:58;;;;;;;2.35;1.05;;;;;;;;;;5110646;28;20039;-66
2022/07/17 06:56:23;;;;;;;7.18;1.15;;;;;;;;;;5110863;28;20039;-66
2022/07/17 06:58:49;;;;;;;4.63;1.00;;;;;;;;;;5111226;28;20044;-66
2022/07/17 07:01:15;;;;;;;7.18;2.13;;;;;;;;;;5110471;28;20031;-66
2022/07/17 07:03:41;;;;;;;6.22;1.30;;;;;;;;;;5111094;28;20047;-66
2022/07/17 07:06:07;;;;;;;7.15;1.10;;;;;;;;;;5110578;28;20083;-66
2022/07/17 07:08:34;;;;;;;8.48;1.23;;;;;;;;;;5109191;28;20052;-66
2022/07/17 07:11:01;;;;;;;10.07;1.30;;;;;;;;;;5110800;28;20557;-66
2022/07/17 07:13:27;;;;;;;4.20;1.10;;;;;;;;;;5110637;28;20071;-66
2022/07/17 07:15:53;;;;;;;3.63;0.93;;;;;;;;;;5110337;28;20090;-66
2022/07/17 07:18:19;;;;;;;4.93;1.23;;;;;;;;;;5110005;28;20052;-66
2022/07/17 07:20:45;;;;;;;7.38;1.40;;;;;;;;;;5110809;28;20039;-66
2022/07/17 07:23:11;;;;;;;6.13;1.02;;;;;;;;;;5110858;28;20036;-66
2022/07/17 07:25:37;;;;;;;5.28;0.90;;;;;;;;;;5115021;28;20039;-66
2022/07/17 07:28:04;;;;;;;4.10;1.02;;;;;;;;;;5131408;27;20047;-66
2022/07/17 07:30:30;;;;;;;4.82;1.10;;;;;;;;;;5131341;27;20108;-66
2022/07/17 07:32:57;;;;;;;11.05;1.50;;;;;;;;;;5130469;27;20442;-66
2022/07/17 07:35:23;;;;;;;7.40;1.27;;;;;;;;;;5131272;27;20054;-66
2022/07/17 07:37:49;;;;;;;4.97;1.20;;;;;;;;;;5131265;27;20039;-66
2022/07/17 07:40:15;;;;;;;5.00;1.00;;;;;;;;;;5130442;27;20091;-66
2022/07/17 07:42:41;;;;;;;2.90;0.90;;;;;;;;;;5131098;27;20039;-66
2022/07/17 07:45:07;;;;;;;6.63;1.25;;;;;;;;;;5131250;27;20054;-66
2022/07/17 07:47:40;;;;;;;7.15;1.27;;;;;;;;;;5130420;27;20091;-66
2022/07/17 07:50:06;;;;;;;7.70;1.00;;;;;;;;;;5131252;27;20060;-66
2022/07/17 07:52:32;;;;;;;5.68;1.17;;;;;;;;;;5129543;28;20047;-67
2022/07/17 07:54:58;;;;;;;3.75;0.73;;;;;;;;;;5130439;27;20086;-67
2022/07/17 07:57:24;;;;;;;5.53;1.27;;;;;;;;;;5130982;27;20132;-67
2022/07/17 07:59:50;;;;;;;3.13;1.30;;;;;;;;;;5129511;28;20066;-66
2022/07/17 08:02:16;;;;;;;5.38;0.95;;;;;;;;;;5130271;27;20035;-66
2022/07/17 08:04:42;;;;;;;7.00;1.20;;;;;;;;;;5130872;27;20051;-66
2022/07/17 08:07:08;;;;;;;3.40;0.90;;;;;;;;;;5131096;27;20126;-66
2022/07/17 08:09:34;;;;;;;5.63;1.08;;;;;;;;;;5130202;27;20404;-66
2022/07/17 08:12:00;;;;;;;5.72;1.13;;;;;;;;;;5130915;27;20043;-66
2022/07/17 08:14:26;;;;;;;3.17;0.90;;;;;;;;;;5130757;27;20049;-66
2022/07/17 08:16:52;;;;;;;3.85;0.80;;;;;;;;;;5130294;27;20068;-66
2022/07/17 08:19:18;;;;;;;3.50;0.80;;;;;;;;;;5130775;27;20041;-66
2022/07/17 08:21:44;;;;;;;4.97;1.10;;;;;;;;;;5130766;27;20049;-66
2022/07/17 08:24:10;;;;;;;4.35;1.00;;;;;;;;;;5128990;28;20043;-66
2022/07/17 08:26:36;;;;;;;4.60;1.05;;;;;;;;;;5117558;27;20039;-66
2022/07/17 08:29:02;;;;;;;4.15;1.05;;;;;;;;;;5113979;28;20039;-66
2022/07/17 08:31:28;;;;;;;5.82;1.20;;;;;;;;;;5112784;27;20040;-66
2022/07/17 08:33:54;;;;;;;5.25;1.25;;;;;;;;;;5113882;28;20036;-66
2022/07/17 08:36:20;;;;;;;8.18;1.23;;;;;;;;;;5113712;28;20051;-66
2022/07/17 08:38:45;;;;;;;4.38;1.05;;;;;;;;;;5113051;28;20068;-66
2022/07/17 08:41:16;;;;;;;5.65;1.25;;;;;;;;;;5114045;28;20107;-66
2022/07/17 08:43:42;;;;;;;3.40;1.20;;;;;;;;;;5113786;28;20032;-66
2022/07/17 08:46:10;;;;;;;8.65;1.52;;;;;;;;;;5112668;28;20387;-66
2022/07/17 08:48:36;;;;;;;5.15;0.95;;;;;;;;;;5113638;28;20044;-66
2022/07/17 08:51:03;;;;;;;4.22;1.10;;;;;;;;;;5113255;28;20050;-66
2022/07/17 08:53:29;;;;;;;3.35;1.00;;;;;;;;;;5112797;28;20078;-66
2022/07/17 08:55:55;;;;;;;6.07;1.17;;;;;;;;;;5113230;28;20074;-66
2022/07/17 08:58:21;;;;;;;5.60;1.02;;;;;;;;;;5113080;28;20122;-66
2022/07/17 09:00:49;;;;;;;3.25;1.10;;;;;;;;;;5112731;28;20367;-66
2022/07/17 09:03:16;;;;;;;4.53;1.10;;;;;;;;;;5112804;28;20071;-66
2022/07/17 09:05:42;;;;;;;2.83;0.90;;;;;;;;;;5112889;28;20059;-66
2022/07/17 09:08:09;;;;;;;4.22;0.90;;;;;;;;;;5112543;28;20039;-66
2022/07/17 09:10:35;;;;;;;4.38;1.05;;;;;;;;;;5113094;27;20158;-66
2022/07/17 09:13:02;;;;;;;2.55;0.80;;;;;;;;;;5112820;28;20495;-66
2022/07/17 09:15:28;;;;;;;3.67;1.10;;;;;;;;;;5112373;28;20054;-66
2022/07/17 09:17:55;;;;;;;3.85;1.00;;;;;;;;;;5112937;28;20036;-66
2022/07/17 09:20:22;;;;;;;2.90;0.95;;;;;;;;;;5113086;28;20031;-66
2022/07/17 09:22:58;;;;;;;4.40;1.00;;;;;;;;;;5112493;28;20039;-66
2022/07/17 09:25:38;;;;;;;3.53;1.20;;;;;;;;;;5115528;27;20031;-66
2022/07/17 09:28:05;;;;;;;6.72;1.13;;;;;;;;;;5133327;27;20062;-66
2022/07/17 09:30:32;;;;;;;7.10;1.23;;;;;;;;;;5132732;27;20035;-66
2022/07/17 09:32:58;;;;;;;5.15;1.23;;;;;;;;;;5133423;27;20086;-66
2022/07/17 09:35:24;;;;;;;5.43;1.10;;;;;;;;;;5133196;27;20520;-66
2022/07/17 09:37:55;;;;;;;5.05;1.25;;;;;;;;;;5132099;27;20558;-66
2022/07/17 09:43:07;;;;;;;6.00;1.20;;;;;;;;;;5132832;27;20043;-66
2022/07/17 09:45:34;;;;;;;1.75;0.93;;;;;;;;;;5132402;27;20039;-66
2022/07/17 09:48:01;;;;;;;3.47;1.17;;;;;;;;;;5133219;27;20042;-66
2022/07/17 09:50:28;;;;;;;5.25;1.17;;;;;;;;;;5132682;27;20039;-66
2022/07/17 09:52:56;;;;;;;3.72;1.00;;;;;;;;;;5131919;27;20046;-66
2022/07/17 09:55:23;;;;;;;2.95;1.00;;;;;;;;;;5132704;27;20039;-66
2022/07/17 09:57:49;;;;;;;6.28;1.50;;;;;;;;;;5132697;27;20065;-66
2022/07/17 10:00:16;;;;;;;6.20;1.05;;;;;;;;;;5131910;27;20034;-66
2022/07/17 10:02:45;;;;;;;3.78;1.20;;;;;;;;;;5132554;27;20047;-66
2022/07/17 10:05:12;;;;;;;6.03;1.38;;;;;;;;;;5132315;27;20099;-66
2022/07/17 10:07:42;;;;;;;5.38;1.10;;;;;;;;;;5131714;27;20039;-66
2022/07/17 10:10:09;;;;;;;3.17;1.08;;;;;;;;;;5132651;27;20464;-66
2022/07/17 10:12:38;;;;;;;7.05;1.58;;;;;;;;;;5132363;27;20046;-66
2022/07/17 10:15:05;;;;;;;3.15;1.00;;;;;;;;;;5131925;27;20126;-66
2022/07/17 10:17:30;;;;;;;2.75;1.30;;;;;;;;;;5132495;27;20084;-66
2022/07/17 10:19:57;;;;;;;4.75;1.33;;;;;;;;;;5132366;27;20031;-66
2022/07/17 10:22:24;;;;;;;7.35;1.30;;;;;;;;;;5131354;27;20042;-66
2022/07/17 10:24:50;;;;;;;4.45;1.27;;;;;;;;;;5132527;27;20114;-66
2022/07/17 10:27:37;;;;;;;4.50;1.02;;;;;;;;;;5113136;27;20043;-66
2022/07/17 10:30:11;;;;;;;4.15;1.10;;;;;;;;;;5111068;28;20039;-66
2022/07/17 10:32:37;;;;;;;1.88;1.33;;;;;;;;;;5111066;27;20043;-66
2022/07/17 10:35:08;;;;;;;5.28;1.45;;;;;;;;;;5111512;28;20489;-66
2022/07/17 10:37:36;;;;;;;2.15;0.93;;;;;;;;;;5110863;28;20470;-66
2022/07/17 10:40:15;;;;;;;4.45;1.23;;;;;;;;;;5111461;28;20043;-66
2022/07/17 10:42:51;;;;;;;3.35;1.13;;;;;;;;;;5111232;28;20039;-66
2022/07/17 10:45:20;;;;;;;3.30;1.20;;;;;;;;;;5110572;28;20036;-66
2022/07/17 10:47:47;;;;;;;3.53;1.17;;;;;;;;;;5110809;28;20060;-66
2022/07/17 10:50:14;;;;;;;3.60;1.00;;;;;;;;;;5110538;28;20390;-66
2022/07/17 10:52:40;;;;;;;4.85;1.25;;;;;;;;;;5110516;28;20375;-66
2022/07/17 10:55:07;;;;;;;5.60;1.23;;;;;;;;;;5110974;28;20124;-66
2022/07/17 10:57:33;;;;;;;4.50;1.23;;;;;;;;;;5111128;28;20044;-66
2022/07/17 10:59:58;;;;;;;4.93;1.27;;;;;;;;;;5110570;28;20485;-66
2022/07/17 11:02:29;;;;;;;3.92;0.85;;;;;;;;;;5109840;28;20379;-66
2022/07/17 11:04:55;;;;;;;4.45;1.10;;;;;;;;;;5110503;28;20104;-66
2022/07/17 11:07:21;;;;;;;4.05;1.55;;;;;;;;;;5110367;28;20035;-66
2022/07/17 11:09:48;;;;;;;1.90;1.08;;;;;;;;;;5109425;28;20047;-66
2022/07/17 11:12:14;;;;;;;2.95;1.38;;;;;;;;;;5110831;28;20051;-66
2022/07/17 11:14:40;;;;;;;12.00;1.50;;;;;;;;;;5110390;28;20040;-66
2022/07/17 11:17:06;;;;;;;2.17;0.93;;;;;;;;;;5110820;28;20156;-66
2022/07/17 11:19:33;;;;;;;2.38;1.10;;;;;;;;;;5110541;28;20035;-66
2022/07/17 11:22:03;;;;;;;3.33;1.20;;;;;;;;;;5110396;28;20039;-66
2022/07/17 11:24:39;;;;;;;5.35;1.27;;;;;;;;;;5110916;28;20497;-66
2022/07/17 11:27:05;;;;;;;3.13;1.10;;;;;;;;;;5127905;28;20039;-66
2022/07/17 11:29:36;;;;;;;7.10;1.50;;;;;;;;;;5130398;27;20035;-66
2022/07/17 11:32:02;;;;;;;5.40;1.27;;;;;;;;;;5131154;27;20039;-66
2022/07/17 11:34:28;;;;;;;6.05;1.10;;;;;;;;;;5130945;27;20050;-66
2022/07/17 11:36:59;;;;;;;7.47;1.88;;;;;;;;;;5130279;27;20050;-66
2022/07/17 11:39:25;;;;;;;4.07;1.15;;;;;;;;;;5131214;27;20043;-66
2022/07/17 11:41:52;;;;;;;4.63;0.98;;;;;;;;;;5130984;27;20385;-66
2022/07/17 11:44:22;;;;;;;4.22;1.15;;;;;;;;;;5130497;27;20053;-66
2022/07/17 11:46:50;;;;;;;6.05;1.52;;;;;;;;;;5131269;27;20050;-66
2022/07/17 11:49:25;;;;;;;6.57;1.30;;;;;;;;;;5130620;27;20035;-66
2022/07/17 11:51:52;;;;;;;1.60;0.82;;;;;;;;;;5130544;27;20059;-66
2022/07/17 11:54:18;;;;;;;3.55;1.00;;;;;;;;;;5131049;27;20055;-66
2022/07/17 11:56:52;;;;;;;3.90;1.15;;;;;;;;;;5130723;27;20081;-66
2022/07/17 11:59:25;;;;;;;6.00;1.20;;;;;;;;;;5130337;27;20076;-66
2022/07/17 12:01:51;;;;;;;2.08;1.05;;;;;;;;;;5132832;27;20035;-66
2022/07/17 12:04:18;;;;;;;2.13;1.05;;;;;;;;;;5133049;27;20510;-66
2022/07/17 12:06:44;;;;;;;4.00;1.10;;;;;;;;;;5134112;27;20050;-66
2022/07/17 12:09:10;;;;;;;3.15;1.15;;;;;;;;;;5134840;27;20043;-66
2022/07/17 12:11:47;;;;;;;1.70;1.05;;;;;;;;;;5134429;27;20088;-66
2022/07/17 12:14:13;;;;;;;1.80;1.10;;;;;;;;;;5134269;27;20118;-66
2022/07/17 12:16:39;;;;;;;2.28;1.20;;;;;;;;;;5134818;27;20143;-66
2022/07/17 12:19:08;;;;;;;4.22;1.35;;;;;;;;;;5134538;27;20118;-66
2022/07/17 12:21:46;;;;;;;3.10;1.10;;;;;;;;;;5133803;27;20036;-66
2022/07/17 12:24:18;;;;;;;3.15;1.35;;;;;;;;;;5134709;27;20031;-66
2022/07/17 12:26:44;;;;;;;4.90;1.70;;;;;;;;;;5119975;27;20529;-66
2022/07/17 12:29:10;;;;;;;4.07;1.42;;;;;;;;;;5113591;27;20130;-66
2022/07/17 12:31:36;;;;;;;5.35;1.50;;;;;;;;;;5113779;28;20116;-66
2022/07/17 12:34:02;;;;;;;3.03;1.33;;;;;;;;;;5113812;28;20050;-66
2022/07/17 12:36:28;;;;;;;2.33;1.70;;;;;;;;;;5113109;28;20088;-66
2022/07/17 12:38:55;;;;;;;3.60;1.50;;;;;;;;;;5112064;28;20039;-66
2022/07/17 12:41:21;;;;;;;3.50;1.60;;;;;;;;;;5113213;28;20092;-66
2022/07/17 12:43:47;;;;;;;3.55;2.33;;;;;;;;;;5113029;28;20039;-66
2022/07/17 12:46:13;;;;;;;3.58;1.48;;;;;;;;;;5113578;28;20047;-66
2022/07/17 12:48:41;;;;;;;3.20;1.73;;;;;;;;;;5113593;28;20051;-66
2022/07/17 12:51:07;;;;;;;2.65;1.50;;;;;;;;;;5112820;28;20382;-66
2022/07/17 12:53:35;;;;;;;3.28;1.52;;;;;;;;;;5113406;28;20130;-66
2022/07/17 12:56:01;;;;;;;3.92;1.50;;;;;;;;;;5113135;28;20066;-66
2022/07/17 12:58:27;;;;;;;4.57;1.55;;;;;;;;;;5112398;28;20088;-66
2022/07/17 13:00:53;;;;;;;3.92;1.65;;;;;;;;;;5113316;28;20044;-66
2022/07/17 13:03:19;;;;;;;3.20;1.48;;;;;;;;;;5113158;28;20038;-66
2022/07/17 13:05:45;;;;;;;5.60;1.90;;;;;;;;;;5112207;28;20058;-66
2022/07/17 13:08:11;;;;;;;3.78;2.13;;;;;;;;;;5113216;28;20136;-66
2022/07/17 13:10:37;;;;;;;3.20;1.60;;;;;;;;;;5113100;28;20059;-66
2022/07/17 13:13:04;;;;;;;4.80;2.00;;;;;;;;;;5111406;28;20044;-66
2022/07/17 13:15:30;;;;;;;3.95;2.20;;;;;;;;;;5113011;28;20474;-67
2022/07/17 13:17:56;;;;;;;3.97;2.55;;;;;;;;;;5112927;28;20043;-67
2022/07/17 13:20:22;;;;;;;5.03;2.80;;;;;;;;;;5112250;28;20067;-67
2022/07/17 13:22:48;;;;;;;4.63;2.67;;;;;;;;;;5113177;27;20114;-67
2022/07/17 13:25:14;;;;;;;4.28;2.50;;;;;;;;;;5113980;27;20044;-67
2022/07/17 13:27:40;;;;;;;4.72;2.30;;;;;;;;;;5132722;27;20031;-67
2022/07/17 13:30:06;;;;;;;3.38;2.45;;;;;;;;;;5133303;27;20042;-67
2022/07/17 13:32:33;;;;;;;4.07;2.20;;;;;;;;;;5133111;27;20050;-67
2022/07/17 13:34:59;;;;;;;3.97;2.40;;;;;;;;;;5132690;27;20081;-67
2022/07/17 13:37:25;;;;;;;5.22;2.97;;;;;;;;;;5133056;27;20051;-67
2022/07/17 13:39:51;;;;;;;3.35;2.50;;;;;;;;;;5133274;27;20031;-67
2022/07/17 13:42:18;;;;;;;5.00;2.50;;;;;;;;;;5132168;27;20035;-67
2022/07/17 13:44:43;;;;;;;4.07;2.35;;;;;;;;;;5132946;27;20035;-67
2022/07/17 13:47:10;;;;;;;2.85;2.17;;;;;;;;;;5133250;27;20465;-67
2022/07/17 13:49:36;;;;;;;4.07;2.13;;;;;;;;;;5132023;27;20043;-67
2022/07/17 13:52:02;;;;;;;4.85;2.47;;;;;;;;;;5133142;27;20039;-67
2022/07/17 13:54:28;;;;;;;4.07;2.60;;;;;;;;;;5132800;27;20389;-67
2022/07/17 13:56:54;;;;;;;3.25;2.25;;;;;;;;;;5131951;27;20046;-67
2022/07/17 13:59:20;;;;;;;4.38;2.15;;;;;;;;;;5132519;27;20069;-67
2022/07/17 14:01:46;;;;;;;3.22;2.25;;;;;;;;;;5132427;27;20031;-67
2022/07/17 14:04:12;;;;;;;5.72;2.20;;;;;;;;;;5132198;27;20071;-67
2022/07/17 14:06:38;;;;;;;6.57;2.28;;;;;;;;;;5132161;27;20051;-67
2022/07/17 14:09:04;;;;;;;4.90;2.10;;;;;;;;;;5132436;27;20064;-67
2022/07/17 14:11:30;;;;;;;4.43;2.50;;;;;;;;;;5131999;27;20035;-67
2022/07/17 14:13:56;;;;;;;3.38;2.15;;;;;;;;;;5132371;27;20092;-67
2022/07/17 14:16:22;;;;;;;4.38;2.50;;;;;;;;;;5132423;27;20088;-67
2022/07/17 14:19:00;;;;;;;4.88;2.63;;;;;;;;;;5131572;27;20466;-67
2022/07/17 14:21:31;;;;;;;4.05;1.90;;;;;;;;;;5132147;27;20039;-67
2022/07/17 14:23:57;;;;;;;4.72;1.85;;;;;;;;;;5132036;27;20045;-67
2022/07/17 14:26:24;;;;;;;3.10;2.10;;;;;;;;;;5119296;27;20127;-67
2022/07/17 14:28:50;;;;;;;4.20;2.10;;;;;;;;;;5111608;28;20402;-67
2022/07/17 14:31:16;;;;;;;3.25;1.98;;;;;;;;;;5111230;28;20266;-67
2022/07/17 14:33:42;;;;;;;4.03;2.20;;;;;;;;;;5110767;28;20040;-67
2022/07/17 14:36:09;;;;;;;3.50;2.22;;;;;;;;;;5111281;28;20063;-67
2022/07/17 14:38:35;;;;;;;6.05;2.33;;;;;;;;;;5111215;28;20082;-67
2022/07/17 14:41:00;;;;;;;4.18;2.25;;;;;;;;;;5110436;28;20071;-67
2022/07/17 14:43:26;;;;;;;5.32;2.00;;;;;;;;;;5111405;28;20039;-67